createdAt,value
2019-04-14T00:02:36.223Z,2.07
2019-04-14T00:05:06.418Z,2.06
2019-04-14T00:07:32.571Z,2.08
2019-04-14T00:09:58.755Z,2.18
2019-04-14T00:12:25.175Z,2.11
2019-04-14T00:14:53.416Z,2.07
2019-04-14T00:17:19.773Z,2.07
2019-04-14T00:19:45.992Z,2.05
2019-04-14T00:22:12.402Z,1.98
2019-04-14T00:24:40.256Z,1.93
2019-04-14T00:27:06.934Z,2.00
2019-04-14T00:29:33.238Z,1.97
2019-04-14T00:32:00.637Z,1.91
2019-04-14T00:34:36.146Z,1.91
2019-04-14T00:37:21.064Z,1.92
2019-04-14T00:39:53.230Z,1.92
2019-04-14T00:42:39.379Z,1.79
2019-04-14T00:45:09.267Z,1.74
2019-04-14T00:47:49.750Z,1.68
2019-04-14T00:50:05.885Z,1.66
2019-04-14T00:52:32.162Z,1.62
2019-04-14T00:54:58.679Z,1.65
2019-04-14T00:57:26.849Z,1.67
2019-04-14T00:59:53.156Z,1.62
2019-04-14T01:02:19.234Z,1.60
2019-04-14T01:04:45.431Z,1.65
2019-04-14T01:07:12.962Z,1.68
2019-04-14T01:09:39.171Z,1.71
2019-04-14T01:12:06.059Z,1.72
2019-04-14T01:14:32.299Z,1.75
2019-04-14T01:16:58.497Z,1.70
2019-04-14T01:19:24.627Z,1.67
2019-04-14T01:21:52.508Z,1.66
2019-04-14T01:24:18.881Z,1.60
2019-04-14T01:26:46.287Z,1.56
2019-04-14T01:29:12.556Z,1.49
2019-04-14T01:31:38.669Z,1.45
2019-04-14T01:34:04.858Z,1.45
2019-04-14T01:36:32.031Z,1.51
2019-04-14T01:38:58.220Z,1.48
2019-04-14T01:41:24.506Z,1.43
2019-04-14T01:43:51.644Z,1.43
2019-04-14T01:46:23.289Z,1.43
2019-04-14T01:48:45.920Z,1.47
2019-04-14T01:51:30.953Z,1.41
2019-04-14T01:53:59.607Z,1.40
2019-04-14T01:56:34.127Z,1.39
2019-04-14T01:59:02.252Z,1.34
2019-04-14T02:01:36.746Z,1.37
2019-04-14T02:04:03.214Z,1.39
2019-04-14T02:06:29.309Z,1.35
2019-04-14T02:08:56.737Z,1.29
2019-04-14T02:11:23.083Z,1.25
2019-04-14T02:13:49.172Z,1.29
2019-04-14T02:16:25.994Z,1.32
2019-04-14T02:18:44.794Z,1.27
2019-04-14T02:21:12.729Z,1.18
2019-04-14T02:23:39.114Z,1.30
2019-04-14T02:26:05.305Z,1.31
2019-04-14T02:28:31.534Z,1.25
2019-04-14T02:31:10.237Z,1.21
2019-04-14T02:33:50.349Z,1.29
2019-04-14T02:38:57.337Z,1.37
2019-04-14T02:41:30.052Z,1.30
2019-04-14T02:43:48.218Z,1.32
2019-04-14T02:46:13.881Z,1.31
2019-04-14T02:48:53.333Z,1.28
2019-04-14T02:51:15.930Z,1.24
2019-04-14T02:56:16.555Z,1.27
2019-04-14T03:01:07.575Z,1.14
2019-04-14T03:03:33.989Z,1.08
2019-04-14T03:06:01.545Z,1.08
2019-04-14T03:08:36.365Z,1.09
2019-04-14T03:10:53.699Z,1.06
2019-04-14T03:15:58.735Z,1.03
2019-04-14T03:26:15.610Z,1.05
2019-04-14T03:28:46.330Z,1.09
2019-04-14T03:31:38.960Z,1.06
2019-04-14T03:38:40.285Z,0.88
2019-04-14T03:43:36.775Z,0.88
2019-04-14T03:46:12.122Z,0.87
2019-04-14T03:51:06.772Z,0.87
2019-04-14T03:53:30.507Z,0.83
2019-04-14T03:55:56.646Z,0.73
2019-04-14T03:58:18.890Z,0.77
2019-04-14T04:00:46.563Z,0.70
2019-04-14T04:03:12.881Z,0.72
2019-04-14T04:05:39.190Z,0.71
2019-04-14T04:08:05.376Z,0.72
2019-04-14T04:10:33.579Z,0.70
2019-04-14T04:12:59.770Z,0.74
2019-04-14T04:15:25.907Z,0.72
2019-04-14T04:17:53.943Z,0.68
2019-04-14T04:20:39.123Z,0.63
2019-04-14T04:23:07.503Z,0.66
2019-04-14T04:25:35.477Z,0.71
2019-04-14T04:28:03.781Z,0.71
2019-04-14T04:30:31.888Z,0.72
2019-04-14T04:33:09.384Z,0.68
2019-04-14T04:35:39.317Z,0.65
2019-04-14T04:38:10.167Z,0.54
2019-04-14T04:40:37.494Z,0.57
2019-04-14T04:43:04.108Z,0.61
2019-04-14T04:45:30.470Z,0.54
2019-04-14T04:47:57.709Z,0.53
2019-04-14T04:50:23.990Z,0.49
2019-04-14T04:52:50.277Z,0.53
2019-04-14T04:55:17.638Z,0.63
2019-04-14T04:57:44.001Z,0.59
2019-04-14T05:00:11.394Z,0.46
2019-04-14T05:02:37.893Z,0.47
2019-04-14T05:05:41.417Z,0.48
2019-04-14T05:08:08.662Z,0.54
2019-04-14T05:10:37.156Z,0.53
2019-04-14T05:13:05.335Z,0.53
2019-04-14T05:15:36.169Z,0.51
2019-04-14T05:18:02.798Z,0.51
2019-04-14T05:20:29.247Z,0.60
2019-04-14T05:22:55.342Z,0.53
2019-04-14T05:25:21.684Z,0.49
2019-04-14T05:27:47.851Z,0.47
2019-04-14T05:30:15.335Z,0.46
2019-04-14T05:32:41.563Z,0.53
2019-04-14T05:35:07.767Z,0.43
2019-04-14T05:37:33.890Z,0.51
2019-04-14T05:40:00.004Z,0.53
2019-04-14T05:42:27.477Z,0.58
2019-04-14T05:44:54.340Z,0.54
2019-04-14T05:47:20.450Z,0.63
2019-04-14T05:49:50.076Z,0.61
2019-04-14T05:52:14.926Z,0.63
2019-04-14T05:54:42.547Z,0.75
2019-04-14T05:57:08.856Z,0.81
2019-04-14T05:59:35.333Z,0.93
2019-04-14T06:02:02.600Z,0.96
2019-04-14T06:04:28.868Z,0.96
2019-04-14T06:06:54.979Z,1.01
2019-04-14T06:09:21.072Z,1.08
2019-04-14T06:11:47.304Z,0.99
2019-04-14T06:14:13.508Z,1.00
2019-04-14T06:16:39.761Z,1.07
2019-04-14T06:19:07.082Z,1.15
2019-04-14T06:21:33.473Z,1.29
2019-04-14T06:23:59.599Z,1.41
2019-04-14T06:26:25.896Z,1.58
2019-04-14T06:28:52.116Z,1.67
2019-04-14T06:31:37.019Z,1.83
2019-04-14T06:34:08.018Z,1.85
2019-04-14T06:36:42.028Z,2.05
2019-04-14T06:39:12.752Z,2.14
2019-04-14T06:41:39.045Z,2.28
2019-04-14T06:44:05.139Z,2.22
2019-04-14T06:46:31.266Z,2.33
2019-04-14T06:48:57.384Z,2.46
2019-04-14T06:51:23.513Z,2.56
2019-04-14T06:53:49.621Z,2.56
2019-04-14T06:56:15.821Z,2.90
2019-04-14T06:58:41.999Z,3.18
2019-04-14T07:01:09.181Z,3.17
2019-04-14T07:03:35.285Z,3.38
2019-04-14T07:06:01.522Z,3.77
2019-04-14T07:08:29.846Z,3.75
2019-04-14T07:10:55.732Z,4.00
2019-04-14T07:13:22.026Z,4.07
2019-04-14T07:15:48.452Z,4.56
2019-04-14T07:18:14.558Z,4.49
2019-04-14T07:20:40.679Z,4.19
2019-04-14T07:23:06.983Z,4.36
2019-04-14T07:25:33.514Z,4.28
2019-04-14T07:27:59.843Z,4.55
2019-04-14T07:30:42.899Z,4.65
2019-04-14T07:33:16.688Z,4.70
2019-04-14T07:35:45.942Z,4.73
2019-04-14T07:38:16.914Z,5.12
2019-04-14T07:40:57.244Z,4.78
2019-04-14T07:43:40.732Z,5.00
2019-04-14T07:46:17.613Z,4.87
2019-04-14T07:48:45.747Z,4.91
2019-04-14T07:51:30.727Z,4.97
2019-04-14T07:54:04.767Z,5.06
2019-04-14T07:56:48.102Z,4.93
2019-04-14T07:59:16.107Z,5.08
2019-04-14T08:01:59.233Z,5.68
2019-04-14T08:04:30.565Z,5.81
2019-04-14T08:06:56.952Z,5.39
2019-04-14T08:09:23.410Z,5.85
2019-04-14T08:11:49.521Z,5.87
2019-04-14T08:14:15.968Z,6.03
2019-04-14T08:16:42.363Z,6.45
2019-04-14T08:19:08.561Z,6.17
2019-04-14T08:21:34.921Z,6.65
2019-04-14T08:24:01.430Z,6.70
2019-04-14T08:26:27.781Z,6.83
2019-04-14T08:28:54.081Z,6.94
2019-04-14T08:31:20.421Z,7.26
2019-04-14T08:33:46.521Z,7.29
2019-04-14T08:36:12.815Z,7.40
2019-04-14T08:38:39.161Z,7.20
2019-04-14T08:41:05.400Z,7.23
2019-04-14T08:43:42.621Z,7.17
2019-04-14T08:46:19.852Z,6.82
2019-04-14T08:48:50.864Z,6.95
2019-04-14T08:51:19.007Z,7.15
2019-04-14T08:54:02.119Z,7.15
2019-04-14T08:56:46.667Z,7.62
2019-04-14T08:59:29.837Z,7.34
2019-04-14T09:01:57.824Z,7.55
2019-04-14T09:04:35.021Z,7.29
2019-04-14T09:07:14.989Z,7.61
2019-04-14T09:09:43.176Z,8.06
2019-04-14T09:12:15.737Z,8.55
2019-04-14T09:14:39.791Z,7.51
2019-04-14T09:17:05.912Z,7.69
2019-04-14T09:19:32.125Z,8.15
2019-04-14T09:21:58.407Z,8.13
2019-04-14T09:24:24.645Z,8.61
2019-04-14T09:26:50.965Z,8.76
2019-04-14T09:29:17.327Z,8.55
2019-04-14T09:31:43.849Z,8.27
2019-04-14T09:34:10.216Z,8.12
2019-04-14T09:36:36.398Z,7.98
2019-04-14T09:39:04.943Z,8.52
2019-04-14T09:41:32.157Z,8.53
2019-04-14T09:43:58.345Z,8.40
2019-04-14T09:46:24.675Z,8.81
2019-04-14T09:48:50.781Z,8.72
2019-04-14T09:51:17.070Z,9.11
2019-04-14T09:53:43.289Z,9.21
2019-04-14T09:56:09.377Z,9.06
2019-04-14T09:58:35.530Z,8.89
2019-04-14T10:01:01.845Z,8.90
2019-04-14T10:03:28.070Z,8.78
2019-04-14T10:05:54.205Z,8.97
2019-04-14T10:08:20.432Z,8.49
2019-04-14T10:10:46.778Z,8.85
2019-04-14T10:13:13.069Z,9.25
2019-04-14T10:15:39.196Z,9.40
2019-04-14T10:18:05.409Z,9.06
2019-04-14T10:20:31.866Z,9.15
2019-04-14T10:22:58.499Z,9.28
2019-04-14T10:25:24.632Z,9.22
2019-04-14T10:27:50.758Z,9.10
2019-04-14T10:30:17.069Z,9.49
2019-04-14T10:32:43.297Z,9.58
2019-04-14T10:35:09.514Z,9.29
2019-04-14T10:37:35.836Z,8.83
2019-04-14T10:40:06.071Z,8.84
2019-04-14T10:42:31.728Z,9.13
2019-04-14T10:44:58.249Z,9.55
2019-04-14T10:47:24.439Z,9.29
2019-04-14T10:49:50.737Z,8.61
2019-04-14T10:52:16.909Z,8.59
2019-04-14T10:54:43.177Z,8.96
2019-04-14T10:57:09.393Z,9.27
2019-04-14T10:59:35.618Z,8.90
2019-04-14T11:02:02.044Z,9.45
2019-04-14T11:04:28.371Z,9.89
2019-04-14T11:06:56.389Z,9.86
2019-04-14T11:09:22.645Z,9.64
2019-04-14T11:11:48.801Z,9.52
2019-04-14T11:14:15.140Z,9.51
2019-04-14T11:16:41.497Z,9.60
2019-04-14T11:19:07.699Z,9.47
2019-04-14T11:21:42.433Z,9.53
2019-04-14T11:24:02.430Z,9.71
2019-04-14T11:26:28.765Z,9.59
2019-04-14T11:28:55.001Z,9.41
2019-04-14T11:31:39.606Z,9.15
2019-04-14T11:34:06.534Z,9.07
2019-04-14T11:36:46.734Z,9.26
2019-04-14T11:39:14.862Z,9.10
2019-04-14T11:41:41.336Z,9.76
2019-04-14T11:44:07.975Z,9.84
2019-04-14T11:46:34.303Z,9.46
2019-04-14T11:49:00.542Z,9.37
2019-04-14T11:51:26.862Z,9.48
2019-04-14T11:53:53.117Z,9.20
2019-04-14T11:56:19.396Z,9.51
2019-04-14T11:58:45.660Z,9.75
2019-04-14T12:01:22.729Z,9.65
2019-04-14T12:04:05.896Z,9.31
2019-04-14T12:06:39.701Z,9.35
2019-04-14T12:09:10.492Z,9.24
2019-04-14T12:11:37.200Z,9.17
2019-04-14T12:14:04.299Z,9.41
2019-04-14T12:16:32.355Z,9.56
2019-04-14T12:18:59.580Z,9.71
2019-04-14T12:21:27.308Z,9.15
2019-04-14T12:23:54.442Z,8.88
2019-04-14T12:26:21.161Z,9.11
2019-04-14T12:28:47.855Z,8.85
2019-04-14T12:31:15.243Z,9.12
2019-04-14T12:33:41.728Z,9.42
2019-04-14T12:36:10.566Z,9.47
2019-04-14T12:38:36.801Z,9.34
2019-04-14T12:41:06.149Z,9.53
2019-04-14T12:43:37.018Z,10.25
2019-04-14T12:46:11.189Z,10.73
2019-04-14T12:48:56.180Z,10.39
2019-04-14T12:51:24.339Z,9.90
2019-04-14T12:53:50.620Z,9.66
2019-04-14T12:56:18.875Z,9.38
2019-04-14T12:58:51.068Z,9.63
2019-04-14T13:01:19.183Z,9.17
2019-04-14T13:03:45.501Z,9.42
2019-04-14T13:06:12.831Z,9.36
2019-04-14T13:08:39.007Z,9.24
2019-04-14T13:11:06.038Z,9.58
2019-04-14T13:13:32.449Z,9.56
2019-04-14T13:15:58.762Z,9.13
2019-04-14T13:18:25.056Z,9.00
2019-04-14T13:20:51.286Z,8.81
2019-04-14T13:23:17.506Z,8.94
2019-04-14T13:25:43.634Z,8.93
2019-04-14T13:28:10.053Z,8.97
2019-04-14T13:30:38.472Z,8.88
2019-04-14T13:33:04.713Z,9.05
2019-04-14T13:35:31.023Z,9.25
2019-04-14T13:37:57.269Z,9.29
2019-04-14T13:40:23.683Z,9.07
2019-04-14T13:42:50.068Z,8.75
2019-04-14T13:45:16.353Z,8.74
2019-04-14T13:47:42.536Z,8.52
2019-04-14T13:50:09.147Z,8.65
2019-04-14T13:52:45.974Z,8.79
2019-04-14T13:55:04.370Z,8.44
2019-04-14T13:57:30.780Z,8.43
2019-04-14T13:59:57.207Z,8.41
2019-04-14T14:02:23.580Z,8.46
2019-04-14T14:04:50.075Z,8.50
2019-04-14T14:07:16.663Z,8.49
2019-04-14T14:09:43.076Z,8.45
2019-04-14T14:12:26.514Z,8.36
2019-04-14T14:15:10.268Z,8.39
2019-04-14T14:17:53.440Z,8.27
2019-04-14T14:20:24.189Z,8.20
2019-04-14T14:23:10.742Z,8.12
2019-04-14T14:25:41.795Z,7.97
2019-04-14T14:28:08.168Z,7.88
2019-04-14T14:30:34.805Z,8.05
2019-04-14T14:33:01.139Z,8.12
2019-04-14T14:35:27.377Z,8.03
2019-04-14T14:37:53.503Z,8.18
2019-04-14T14:40:20.068Z,8.19
2019-04-14T14:42:46.472Z,8.16
2019-04-14T14:45:14.934Z,8.26
2019-04-14T14:47:43.093Z,8.07
2019-04-14T14:50:23.196Z,8.01
2019-04-14T14:52:49.609Z,7.96
2019-04-14T14:55:16.020Z,7.57
2019-04-14T14:57:42.590Z,7.66
2019-04-14T15:00:23.412Z,7.82
2019-04-14T15:02:49.638Z,7.92
2019-04-14T15:05:15.812Z,8.00
2019-04-14T15:07:42.144Z,7.72
2019-04-14T15:10:08.477Z,7.72
2019-04-14T15:12:35.792Z,7.60
2019-04-14T15:15:03.633Z,7.58
2019-04-14T15:17:30.015Z,7.53
2019-04-14T15:19:57.288Z,7.60
2019-04-14T15:22:23.504Z,7.56
2019-04-14T15:24:49.740Z,7.50
2019-04-14T15:27:15.975Z,7.53
2019-04-14T15:29:42.211Z,7.52
2019-04-14T15:32:08.559Z,7.48
2019-04-14T15:34:34.891Z,7.56
2019-04-14T15:37:01.266Z,7.32
2019-04-14T15:39:27.811Z,7.30
2019-04-14T15:41:54.261Z,7.36
2019-04-14T15:44:20.886Z,7.34
2019-04-14T15:46:47.407Z,7.40
2019-04-14T15:49:14.838Z,7.40
2019-04-14T15:51:41.094Z,7.40
2019-04-14T15:54:07.415Z,7.47
2019-04-14T15:56:52.226Z,7.15
2019-04-14T15:59:35.724Z,7.19
2019-04-14T16:02:10.032Z,7.11
2019-04-14T16:04:41.117Z,6.84
2019-04-14T16:07:12.983Z,6.70
2019-04-14T16:09:43.824Z,6.75
2019-04-14T16:12:14.861Z,6.68
2019-04-14T16:14:58.323Z,6.65
2019-04-14T16:17:43.358Z,6.75
2019-04-14T16:20:17.556Z,6.67
2019-04-14T16:22:43.875Z,6.59
2019-04-14T16:25:10.310Z,6.43
2019-04-14T16:27:38.549Z,6.45
2019-04-14T16:30:16.467Z,6.59
2019-04-14T16:32:44.690Z,6.59
2019-04-14T16:35:12.940Z,6.51
2019-04-14T16:37:39.241Z,6.35
2019-04-14T16:40:06.093Z,6.53
2019-04-14T16:42:32.312Z,6.21
2019-04-14T16:44:58.532Z,6.37
2019-04-14T16:47:24.919Z,6.47
2019-04-14T16:49:51.482Z,6.32
2019-04-14T16:52:19.751Z,6.18
2019-04-14T16:55:04.619Z,5.96
2019-04-14T16:57:50.876Z,6.03
2019-04-14T17:00:22.388Z,5.97
2019-04-14T17:02:50.164Z,6.05
2019-04-14T17:05:16.531Z,6.10
2019-04-14T17:07:42.769Z,5.88
2019-04-14T17:10:09.703Z,5.86
2019-04-14T17:12:36.045Z,5.82
2019-04-14T17:15:17.797Z,5.93
2019-04-14T17:18:02.432Z,5.84
2019-04-14T17:20:30.641Z,6.06
2019-04-14T17:23:15.481Z,5.96
2019-04-14T17:25:43.560Z,5.84
2019-04-14T17:28:17.691Z,5.94
2019-04-14T17:30:45.980Z,5.84
2019-04-14T17:33:17.229Z,5.97
2019-04-14T17:35:51.400Z,5.92
2019-04-14T17:38:19.584Z,6.02
2019-04-14T17:40:56.661Z,5.93
2019-04-14T17:43:34.948Z,5.90
2019-04-14T17:46:03.154Z,6.07
2019-04-14T17:48:46.329Z,5.94
2019-04-14T17:51:23.605Z,6.04
2019-04-14T17:54:06.993Z,5.90
2019-04-14T17:56:41.056Z,5.93
2019-04-14T17:59:18.391Z,5.94
2019-04-14T18:01:46.650Z,6.02
2019-04-14T18:04:19.573Z,6.00
2019-04-14T18:06:47.859Z,5.84
2019-04-14T18:09:16.217Z,5.98
2019-04-14T18:11:53.494Z,5.89
2019-04-14T18:14:21.610Z,5.78
2019-04-14T18:17:04.790Z,5.72
2019-04-14T18:19:32.844Z,5.79
2019-04-14T18:21:59.195Z,5.72
2019-04-14T18:24:25.428Z,5.79
2019-04-14T18:26:51.790Z,5.76
2019-04-14T18:29:26.383Z,5.78
2019-04-14T18:31:54.489Z,5.75
2019-04-14T18:34:31.789Z,5.76
2019-04-14T18:37:08.776Z,5.80
2019-04-14T18:39:49.871Z,5.78
2019-04-14T18:42:34.625Z,5.83
2019-04-14T18:45:12.030Z,5.82
2019-04-14T18:47:52.442Z,5.80
2019-04-14T18:50:23.701Z,5.83
2019-04-14T18:52:54.645Z,5.77
2019-04-14T18:55:40.382Z,5.74
2019-04-14T18:58:17.650Z,5.85
2019-04-14T19:00:55.050Z,5.88
2019-04-14T19:03:21.279Z,5.88
2019-04-14T19:05:47.597Z,5.88
2019-04-14T19:08:14.146Z,5.87
2019-04-14T19:10:42.590Z,5.74
2019-04-14T19:13:13.567Z,5.73
2019-04-14T19:15:47.674Z,5.79
2019-04-14T19:18:18.788Z,5.79
2019-04-14T19:20:46.820Z,5.79
2019-04-14T19:23:13.039Z,5.75
2019-04-14T19:25:39.244Z,5.78
2019-04-14T19:28:05.463Z,5.68
2019-04-14T19:30:31.735Z,5.60
2019-04-14T19:32:57.974Z,5.72
2019-04-14T19:35:26.801Z,5.74
2019-04-14T19:37:52.375Z,5.73
2019-04-14T19:40:18.709Z,5.67
2019-04-14T19:42:45.014Z,5.77
2019-04-14T19:45:11.330Z,5.68
2019-04-14T19:47:37.662Z,5.82
2019-04-14T19:50:04.571Z,5.78
2019-04-14T19:52:30.960Z,5.65
2019-04-14T19:54:57.236Z,5.68
2019-04-14T19:57:23.347Z,5.71
2019-04-14T19:59:49.601Z,5.74
2019-04-14T20:02:16.026Z,5.76
2019-04-14T20:04:42.370Z,5.79
2019-04-14T20:07:08.481Z,5.80
2019-04-14T20:09:34.755Z,5.64
2019-04-14T20:12:00.975Z,5.76
2019-04-14T20:14:27.370Z,5.72
2019-04-14T20:17:05.947Z,5.74
2019-04-14T20:19:40.275Z,5.73
2019-04-14T20:22:11.294Z,5.80
2019-04-14T20:24:42.396Z,5.73
2019-04-14T20:27:27.332Z,5.84
2019-04-14T20:29:55.564Z,5.92
2019-04-14T20:32:23.675Z,5.87
2019-04-14T20:34:50.137Z,5.86
2019-04-14T20:37:16.343Z,5.82
2019-04-14T20:39:42.536Z,5.74
2019-04-14T20:42:09.035Z,5.80
2019-04-14T20:44:35.256Z,5.73
2019-04-14T20:47:01.692Z,5.72
2019-04-14T20:49:29.044Z,5.68
2019-04-14T20:51:55.365Z,5.71
2019-04-14T20:54:21.598Z,5.72
2019-04-14T20:56:47.814Z,5.69
2019-04-14T20:59:13.905Z,5.75
2019-04-14T21:01:41.938Z,5.75
2019-04-14T21:04:16.085Z,5.79
2019-04-14T21:06:56.343Z,5.77
2019-04-14T21:09:30.480Z,5.84
2019-04-14T21:11:58.695Z,5.81
2019-04-14T21:14:26.721Z,5.86
2019-04-14T21:17:10.100Z,5.82
2019-04-14T21:19:39.199Z,5.67
2019-04-14T21:22:10.122Z,5.67
2019-04-14T21:24:43.939Z,5.67
2019-04-14T21:27:11.958Z,5.77
2019-04-14T21:29:42.865Z,5.66
2019-04-14T21:32:13.852Z,5.75
2019-04-14T21:34:44.816Z,5.77
2019-04-14T21:37:19.965Z,5.78
2019-04-14T21:39:48.098Z,5.79
2019-04-14T21:42:14.827Z,5.79
2019-04-14T21:44:41.150Z,5.83
2019-04-14T21:47:07.350Z,5.84
2019-04-14T21:49:33.682Z,5.83
2019-04-14T21:52:01.921Z,5.86
2019-04-14T21:54:28.212Z,5.80
2019-04-14T21:57:12.794Z,5.73
2019-04-14T21:59:57.679Z,5.84
2019-04-14T22:02:42.790Z,5.70
2019-04-14T22:05:27.600Z,5.82
2019-04-14T22:08:07.944Z,5.81
2019-04-14T22:10:36.104Z,5.87
2019-04-14T22:13:02.496Z,5.84
2019-04-14T22:15:28.807Z,5.96
2019-04-14T22:17:55.126Z,5.93
2019-04-14T22:20:21.437Z,5.90
2019-04-14T22:22:47.750Z,5.96
2019-04-14T22:25:14.076Z,5.94
2019-04-14T22:27:40.304Z,5.93
2019-04-14T22:30:07.337Z,5.86
2019-04-14T22:32:33.446Z,5.81
2019-04-14T22:34:59.671Z,5.83
2019-04-14T22:37:25.783Z,5.89
2019-04-14T22:39:51.876Z,6.03
2019-04-14T22:42:18.202Z,5.98
2019-04-14T22:44:44.496Z,5.86
2019-04-14T22:47:10.611Z,5.84
2019-04-14T22:49:36.796Z,5.88
2019-04-14T22:52:03.432Z,5.96
2019-04-14T22:54:29.529Z,5.90
2019-04-14T22:56:55.771Z,5.85
2019-04-14T22:59:21.982Z,5.81
2019-04-14T23:01:49.987Z,5.92
2019-04-14T23:04:18.090Z,5.89
2019-04-14T23:07:02.947Z,5.96
2019-04-14T23:09:31.073Z,6.04
2019-04-14T23:12:08.310Z,5.90
2019-04-14T23:14:48.458Z,5.87
2019-04-14T23:17:25.746Z,5.69
2019-04-14T23:19:56.876Z,5.75
2019-04-14T23:22:34.161Z,5.73
2019-04-14T23:25:00.475Z,5.70
2019-04-14T23:27:26.593Z,5.97
2019-04-14T23:29:52.840Z,5.91
2019-04-14T23:32:19.031Z,5.81
2019-04-14T23:34:45.141Z,5.97
2019-04-14T23:37:11.448Z,5.93
2019-04-14T23:39:37.589Z,5.78
2019-04-14T23:42:04.001Z,5.87
2019-04-14T23:44:30.080Z,5.75
2019-04-14T23:46:56.375Z,5.66
2019-04-14T23:49:22.682Z,5.64
2019-04-14T23:51:48.972Z,5.65
2019-04-14T23:54:15.076Z,5.73
2019-04-14T23:56:41.291Z,5.80
2019-04-14T23:59:07.526Z,5.84
